sensor_id;sensor_type;location;lat;lon;timestamp;P1;durP1;ratioP1;P2;durP2;ratioP2
19754;SDS011;10036;47.812;9.274;2022-12-18T00:00:48;63.83;;;27.13;;
19754;SDS011;10036;47.812;9.274;2022-12-18T00:03:15;65.50;;;27.73;;
19754;SDS011;10036;47.812;9.274;2022-12-18T00:05:48;66.17;;;28.47;;
19754;SDS011;10036;47.812;9.274;2022-12-18T00:08:15;65.83;;;27.50;;
19754;SDS011;10036;47.812;9.274;2022-12-18T00:10:44;62.40;;;27.50;;
19754;SDS011;10036;47.812;9.274;2022-12-18T00:13:11;62.03;;;27.00;;
19754;SDS011;10036;47.812;9.274;2022-12-18T00:15:38;65.47;;;27.27;;
19754;SDS011;10036;47.812;9.274;2022-12-18T00:18:06;67.47;;;27.20;;
19754;SDS011;10036;47.812;9.274;2022-12-18T00:20:35;61.50;;;27.93;;
19754;SDS011;10036;47.812;9.274;2022-12-18T00:23:03;71.30;;;28.43;;
19754;SDS011;10036;47.812;9.274;2022-12-18T00:25:32;65.73;;;28.23;;
19754;SDS011;10036;47.812;9.274;2022-12-18T00:28:00;63.93;;;28.07;;
19754;SDS011;10036;47.812;9.274;2022-12-18T00:30:27;61.23;;;27.33;;
19754;SDS011;10036;47.812;9.274;2022-12-18T00:32:54;59.30;;;27.67;;
19754;SDS011;10036;47.812;9.274;2022-12-18T00:35:21;59.63;;;27.23;;
19754;SDS011;10036;47.812;9.274;2022-12-18T00:37:48;67.77;;;28.77;;
19754;SDS011;10036;47.812;9.274;2022-12-18T00:40:15;61.83;;;27.70;;
19754;SDS011;10036;47.812;9.274;2022-12-18T00:42:42;63.10;;;26.90;;
19754;SDS011;10036;47.812;9.274;2022-12-18T00:45:24;60.73;;;26.50;;
19754;SDS011;10036;47.812;9.274;2022-12-18T00:47:51;65.70;;;27.03;;
19754;SDS011;10036;47.812;9.274;2022-12-18T00:50:19;60.43;;;26.83;;
19754;SDS011;10036;47.812;9.274;2022-12-18T00:52:46;67.63;;;28.53;;
19754;SDS011;10036;47.812;9.274;2022-12-18T00:55:14;66.13;;;27.63;;
19754;SDS011;10036;47.812;9.274;2022-12-18T00:57:41;60.17;;;27.53;;
19754;SDS011;10036;47.812;9.274;2022-12-18T01:00:09;62.47;;;27.00;;
19754;SDS011;10036;47.812;9.274;2022-12-18T01:02:39;63.33;;;26.23;;
19754;SDS011;10036;47.812;9.274;2022-12-18T01:05:06;59.63;;;26.07;;
19754;SDS011;10036;47.812;9.274;2022-12-18T01:07:34;68.43;;;27.73;;
19754;SDS011;10036;47.812;9.274;2022-12-18T01:10:00;56.97;;;25.33;;
19754;SDS011;10036;47.812;9.274;2022-12-18T01:12:27;61.57;;;27.23;;
19754;SDS011;10036;47.812;9.274;2022-12-18T01:14:54;59.03;;;25.97;;
19754;SDS011;10036;47.812;9.274;2022-12-18T01:17:21;64.00;;;26.83;;
19754;SDS011;10036;47.812;9.274;2022-12-18T01:19:49;67.90;;;28.10;;
19754;SDS011;10036;47.812;9.274;2022-12-18T01:22:16;59.47;;;25.63;;
19754;SDS011;10036;47.812;9.274;2022-12-18T01:24:43;64.13;;;26.73;;
19754;SDS011;10036;47.812;9.274;2022-12-18T01:27:10;64.40;;;26.77;;
19754;SDS011;10036;47.812;9.274;2022-12-18T01:29:36;66.70;;;28.00;;
19754;SDS011;10036;47.812;9.274;2022-12-18T01:32:03;64.47;;;26.87;;
19754;SDS011;10036;47.812;9.274;2022-12-18T01:34:30;62.60;;;26.40;;
19754;SDS011;10036;47.812;9.274;2022-12-18T01:36:59;55.50;;;24.73;;
19754;SDS011;10036;47.812;9.274;2022-12-18T01:39:28;64.13;;;27.13;;
19754;SDS011;10036;47.812;9.274;2022-12-18T01:41:56;57.53;;;27.07;;
19754;SDS011;10036;47.812;9.274;2022-12-18T01:47:33;58.27;;;24.77;;
19754;SDS011;10036;47.812;9.274;2022-12-18T01:50:04;57.27;;;25.37;;
19754;SDS011;10036;47.812;9.274;2022-12-18T01:52:35;56.30;;;26.30;;
19754;SDS011;10036;47.812;9.274;2022-12-18T01:55:07;54.83;;;24.50;;
19754;SDS011;10036;47.812;9.274;2022-12-18T01:57:35;58.43;;;24.63;;
19754;SDS011;10036;47.812;9.274;2022-12-18T02:00:04;55.80;;;24.23;;
19754;SDS011;10036;47.812;9.274;2022-12-18T02:02:33;57.87;;;25.47;;
19754;SDS011;10036;47.812;9.274;2022-12-18T02:05:01;56.73;;;24.83;;
19754;SDS011;10036;47.812;9.274;2022-12-18T02:07:31;48.17;;;23.43;;
19754;SDS011;10036;47.812;9.274;2022-12-18T02:10:10;59.00;;;25.17;;
19754;SDS011;10036;47.812;9.274;2022-12-18T02:12:45;52.10;;;23.93;;
19754;SDS011;10036;47.812;9.274;2022-12-18T02:15:16;52.77;;;23.47;;
19754;SDS011;10036;47.812;9.274;2022-12-18T02:17:50;54.30;;;24.10;;
19754;SDS011;10036;47.812;9.274;2022-12-18T02:20:21;51.50;;;24.50;;
19754;SDS011;10036;47.812;9.274;2022-12-18T02:22:58;59.93;;;25.23;;
19754;SDS011;10036;47.812;9.274;2022-12-18T02:25:37;53.40;;;24.30;;
19754;SDS011;10036;47.812;9.274;2022-12-18T02:28:11;58.40;;;23.77;;
19754;SDS011;10036;47.812;9.274;2022-12-18T02:30:41;56.90;;;24.80;;
19754;SDS011;10036;47.812;9.274;2022-12-18T02:33:10;55.53;;;23.87;;
19754;SDS011;10036;47.812;9.274;2022-12-18T02:35:38;53.77;;;24.43;;
19754;SDS011;10036;47.812;9.274;2022-12-18T02:38:07;54.20;;;24.30;;
19754;SDS011;10036;47.812;9.274;2022-12-18T02:40:33;58.03;;;24.10;;
19754;SDS011;10036;47.812;9.274;2022-12-18T02:43:03;49.63;;;23.10;;
19754;SDS011;10036;47.812;9.274;2022-12-18T02:45:35;54.17;;;24.40;;
19754;SDS011;10036;47.812;9.274;2022-12-18T02:48:03;54.07;;;24.67;;
19754;SDS011;10036;47.812;9.274;2022-12-18T02:50:30;50.70;;;22.87;;
19754;SDS011;10036;47.812;9.274;2022-12-18T02:53:06;59.67;;;24.47;;
19754;SDS011;10036;47.812;9.274;2022-12-18T02:55:45;55.67;;;24.80;;
19754;SDS011;10036;47.812;9.274;2022-12-18T02:58:20;51.77;;;23.70;;
19754;SDS011;10036;47.812;9.274;2022-12-18T03:00:58;55.63;;;23.93;;
19754;SDS011;10036;47.812;9.274;2022-12-18T03:03:32;55.37;;;23.33;;
19754;SDS011;10036;47.812;9.274;2022-12-18T03:06:03;56.40;;;24.07;;
19754;SDS011;10036;47.812;9.274;2022-12-18T03:08:36;57.60;;;25.63;;
19754;SDS011;10036;47.812;9.274;2022-12-18T03:11:05;54.07;;;22.67;;
19754;SDS011;10036;47.812;9.274;2022-12-18T03:13:36;54.37;;;24.07;;
19754;SDS011;10036;47.812;9.274;2022-12-18T03:16:07;54.33;;;23.80;;
19754;SDS011;10036;47.812;9.274;2022-12-18T03:18:39;56.37;;;24.00;;
19754;SDS011;10036;47.812;9.274;2022-12-18T03:21:11;59.97;;;25.70;;
19754;SDS011;10036;47.812;9.274;2022-12-18T03:23:42;53.67;;;23.43;;
19754;SDS011;10036;47.812;9.274;2022-12-18T03:26:12;57.90;;;24.03;;
19754;SDS011;10036;47.812;9.274;2022-12-18T03:28:44;57.63;;;24.93;;
19754;SDS011;10036;47.812;9.274;2022-12-18T03:31:17;56.03;;;23.03;;
19754;SDS011;10036;47.812;9.274;2022-12-18T03:33:46;57.60;;;24.80;;
19754;SDS011;10036;47.812;9.274;2022-12-18T03:36:18;58.70;;;25.17;;
19754;SDS011;10036;47.812;9.274;2022-12-18T03:38:45;58.57;;;25.67;;
19754;SDS011;10036;47.812;9.274;2022-12-18T03:41:14;54.57;;;23.63;;
19754;SDS011;10036;47.812;9.274;2022-12-18T03:43:47;59.77;;;25.33;;
19754;SDS011;10036;47.812;9.274;2022-12-18T03:46:23;57.63;;;24.30;;
19754;SDS011;10036;47.812;9.274;2022-12-18T03:48:56;54.27;;;23.30;;
19754;SDS011;10036;47.812;9.274;2022-12-18T03:51:29;62.40;;;24.10;;
19754;SDS011;10036;47.812;9.274;2022-12-18T03:54:04;56.90;;;25.00;;
19754;SDS011;10036;47.812;9.274;2022-12-18T03:56:33;54.53;;;22.80;;
19754;SDS011;10036;47.812;9.274;2022-12-18T03:59:04;57.03;;;24.70;;
19754;SDS011;10036;47.812;9.274;2022-12-18T04:01:35;55.27;;;23.20;;
19754;SDS011;10036;47.812;9.274;2022-12-18T04:04:05;63.50;;;24.17;;
19754;SDS011;10036;47.812;9.274;2022-12-18T04:06:34;59.40;;;24.33;;
19754;SDS011;10036;47.812;9.274;2022-12-18T04:09:02;56.50;;;25.27;;
19754;SDS011;10036;47.812;9.274;2022-12-18T04:11:30;61.80;;;24.73;;
19754;SDS011;10036;47.812;9.274;2022-12-18T04:13:57;58.07;;;24.80;;
19754;SDS011;10036;47.812;9.274;2022-12-18T04:16:24;61.63;;;24.33;;
19754;SDS011;10036;47.812;9.274;2022-12-18T04:18:53;58.23;;;24.30;;
19754;SDS011;10036;47.812;9.274;2022-12-18T04:21:20;60.77;;;24.63;;
19754;SDS011;10036;47.812;9.274;2022-12-18T04:23:47;56.70;;;24.87;;
19754;SDS011;10036;47.812;9.274;2022-12-18T04:26:14;57.47;;;25.03;;
19754;SDS011;10036;47.812;9.274;2022-12-18T04:28:41;60.67;;;24.77;;
19754;SDS011;10036;47.812;9.274;2022-12-18T04:31:08;57.17;;;24.93;;
19754;SDS011;10036;47.812;9.274;2022-12-18T04:33:35;61.27;;;23.63;;
19754;SDS011;10036;47.812;9.274;2022-12-18T04:36:03;58.33;;;23.77;;
19754;SDS011;10036;47.812;9.274;2022-12-18T04:38:31;58.70;;;24.30;;
19754;SDS011;10036;47.812;9.274;2022-12-18T04:40:57;62.40;;;25.20;;
19754;SDS011;10036;47.812;9.274;2022-12-18T04:43:24;61.27;;;25.50;;
19754;SDS011;10036;47.812;9.274;2022-12-18T04:45:51;61.10;;;24.33;;
19754;SDS011;10036;47.812;9.274;2022-12-18T04:48:18;62.37;;;24.77;;
19754;SDS011;10036;47.812;9.274;2022-12-18T04:50:46;55.83;;;23.53;;
19754;SDS011;10036;47.812;9.274;2022-12-18T04:53:14;58.00;;;23.93;;
19754;SDS011;10036;47.812;9.274;2022-12-18T04:55:41;53.00;;;23.40;;
19754;SDS011;10036;47.812;9.274;2022-12-18T04:58:08;57.97;;;24.20;;
19754;SDS011;10036;47.812;9.274;2022-12-18T05:00:35;67.20;;;25.93;;
19754;SDS011;10036;47.812;9.274;2022-12-18T05:03:02;61.10;;;24.23;;
19754;SDS011;10036;47.812;9.274;2022-12-18T05:05:29;55.47;;;23.47;;
19754;SDS011;10036;47.812;9.274;2022-12-18T05:07:55;56.87;;;24.57;;
19754;SDS011;10036;47.812;9.274;2022-12-18T05:10:24;58.43;;;23.07;;
19754;SDS011;10036;47.812;9.274;2022-12-18T05:12:51;57.43;;;24.37;;
19754;SDS011;10036;47.812;9.274;2022-12-18T05:15:27;52.93;;;23.30;;
19754;SDS011;10036;47.812;9.274;2022-12-18T05:17:55;53.37;;;22.97;;
19754;SDS011;10036;47.812;9.274;2022-12-18T05:20:23;59.80;;;24.00;;
19754;SDS011;10036;47.812;9.274;2022-12-18T05:22:51;56.60;;;23.50;;
19754;SDS011;10036;47.812;9.274;2022-12-18T05:25:18;55.23;;;22.43;;
19754;SDS011;10036;47.812;9.274;2022-12-18T05:27:46;56.13;;;23.73;;
19754;SDS011;10036;47.812;9.274;2022-12-18T05:30:13;50.37;;;22.70;;
19754;SDS011;10036;47.812;9.274;2022-12-18T05:32:41;54.13;;;22.23;;
19754;SDS011;10036;47.812;9.274;2022-12-18T05:35:09;50.40;;;22.20;;
19754;SDS011;10036;47.812;9.274;2022-12-18T05:37:36;50.17;;;24.33;;
19754;SDS011;10036;47.812;9.274;2022-12-18T05:40:04;53.90;;;23.30;;
19754;SDS011;10036;47.812;9.274;2022-12-18T05:42:31;52.93;;;21.67;;
19754;SDS011;10036;47.812;9.274;2022-12-18T05:45:00;50.87;;;22.60;;
19754;SDS011;10036;47.812;9.274;2022-12-18T05:47:27;46.43;;;20.77;;
19754;SDS011;10036;47.812;9.274;2022-12-18T05:49:54;57.63;;;23.47;;
19754;SDS011;10036;47.812;9.274;2022-12-18T05:52:21;54.37;;;21.87;;
19754;SDS011;10036;47.812;9.274;2022-12-18T05:54:48;53.00;;;22.63;;
19754;SDS011;10036;47.812;9.274;2022-12-18T05:57:15;50.93;;;22.27;;
19754;SDS011;10036;47.812;9.274;2022-12-18T05:59:41;56.90;;;23.33;;
19754;SDS011;10036;47.812;9.274;2022-12-18T06:02:10;57.60;;;23.43;;
19754;SDS011;10036;47.812;9.274;2022-12-18T06:04:37;55.63;;;24.40;;
19754;SDS011;10036;47.812;9.274;2022-12-18T06:07:04;56.73;;;24.20;;
19754;SDS011;10036;47.812;9.274;2022-12-18T06:09:31;55.67;;;23.87;;
19754;SDS011;10036;47.812;9.274;2022-12-18T06:11:58;55.27;;;23.77;;
19754;SDS011;10036;47.812;9.274;2022-12-18T06:14:25;57.23;;;25.17;;
19754;SDS011;10036;47.812;9.274;2022-12-18T06:16:52;57.80;;;24.03;;
19754;SDS011;10036;47.812;9.274;2022-12-18T06:19:20;59.87;;;24.40;;
19754;SDS011;10036;47.812;9.274;2022-12-18T06:21:47;57.77;;;23.93;;
19754;SDS011;10036;47.812;9.274;2022-12-18T06:24:14;53.60;;;24.80;;
19754;SDS011;10036;47.812;9.274;2022-12-18T06:26:41;74.13;;;31.03;;
19754;SDS011;10036;47.812;9.274;2022-12-18T06:29:08;68.33;;;29.37;;
19754;SDS011;10036;47.812;9.274;2022-12-18T06:31:34;61.43;;;26.83;;
19754;SDS011;10036;47.812;9.274;2022-12-18T06:34:02;67.73;;;28.70;;
19754;SDS011;10036;47.812;9.274;2022-12-18T06:36:30;63.97;;;28.87;;
19754;SDS011;10036;47.812;9.274;2022-12-18T06:38:57;66.07;;;28.33;;
19754;SDS011;10036;47.812;9.274;2022-12-18T06:41:24;58.80;;;25.60;;
19754;SDS011;10036;47.812;9.274;2022-12-18T06:43:51;57.87;;;24.00;;
19754;SDS011;10036;47.812;9.274;2022-12-18T06:46:18;59.13;;;25.47;;
19754;SDS011;10036;47.812;9.274;2022-12-18T06:48:46;56.43;;;24.00;;
19754;SDS011;10036;47.812;9.274;2022-12-18T06:51:15;60.50;;;25.47;;
19754;SDS011;10036;47.812;9.274;2022-12-18T06:53:44;55.97;;;24.50;;
19754;SDS011;10036;47.812;9.274;2022-12-18T06:56:11;54.93;;;23.03;;
19754;SDS011;10036;47.812;9.274;2022-12-18T06:58:38;57.87;;;24.33;;
19754;SDS011;10036;47.812;9.274;2022-12-18T07:01:06;58.13;;;24.43;;
19754;SDS011;10036;47.812;9.274;2022-12-18T07:03:36;54.97;;;23.90;;
19754;SDS011;10036;47.812;9.274;2022-12-18T07:06:03;57.03;;;25.63;;
19754;SDS011;10036;47.812;9.274;2022-12-18T07:08:31;56.07;;;23.27;;
19754;SDS011;10036;47.812;9.274;2022-12-18T07:11:02;54.60;;;23.93;;
19754;SDS011;10036;47.812;9.274;2022-12-18T07:13:30;52.23;;;24.87;;
19754;SDS011;10036;47.812;9.274;2022-12-18T07:16:02;54.27;;;23.57;;
19754;SDS011;10036;47.812;9.274;2022-12-18T07:18:33;56.73;;;23.50;;
19754;SDS011;10036;47.812;9.274;2022-12-18T07:21:02;54.03;;;23.30;;
19754;SDS011;10036;47.812;9.274;2022-12-18T07:23:31;50.63;;;22.70;;
19754;SDS011;10036;47.812;9.274;2022-12-18T07:26:01;58.17;;;23.80;;
19754;SDS011;10036;47.812;9.274;2022-12-18T07:28:28;53.57;;;24.13;;
19754;SDS011;10036;47.812;9.274;2022-12-18T07:30:55;58.27;;;24.60;;
19754;SDS011;10036;47.812;9.274;2022-12-18T07:33:22;53.87;;;23.97;;
19754;SDS011;10036;47.812;9.274;2022-12-18T07:35:49;53.43;;;23.80;;
19754;SDS011;10036;47.812;9.274;2022-12-18T07:38:16;52.90;;;23.50;;
19754;SDS011;10036;47.812;9.274;2022-12-18T07:40:43;58.97;;;23.23;;
19754;SDS011;10036;47.812;9.274;2022-12-18T07:43:11;52.13;;;22.17;;
19754;SDS011;10036;47.812;9.274;2022-12-18T07:45:38;59.27;;;24.23;;
19754;SDS011;10036;47.812;9.274;2022-12-18T07:48:04;55.30;;;24.67;;
19754;SDS011;10036;47.812;9.274;2022-12-18T07:50:31;54.47;;;23.57;;
19754;SDS011;10036;47.812;9.274;2022-12-18T07:52:58;54.03;;;23.03;;
19754;SDS011;10036;47.812;9.274;2022-12-18T07:55:28;57.33;;;24.27;;
19754;SDS011;10036;47.812;9.274;2022-12-18T07:57:55;52.03;;;23.07;;
19754;SDS011;10036;47.812;9.274;2022-12-18T08:00:23;57.73;;;23.53;;
19754;SDS011;10036;47.812;9.274;2022-12-18T08:02:50;58.63;;;24.97;;
19754;SDS011;10036;47.812;9.274;2022-12-18T08:05:17;60.47;;;26.77;;
19754;SDS011;10036;47.812;9.274;2022-12-18T08:07:43;58.87;;;25.17;;
19754;SDS011;10036;47.812;9.274;2022-12-18T08:10:10;55.23;;;23.37;;
19754;SDS011;10036;47.812;9.274;2022-12-18T08:12:37;56.90;;;24.73;;
19754;SDS011;10036;47.812;9.274;2022-12-18T08:15:05;60.33;;;25.70;;
19754;SDS011;10036;47.812;9.274;2022-12-18T08:17:33;59.67;;;25.73;;
19754;SDS011;10036;47.812;9.274;2022-12-18T08:20:00;62.77;;;26.33;;
19754;SDS011;10036;47.812;9.274;2022-12-18T08:22:27;67.73;;;29.50;;
19754;SDS011;10036;47.812;9.274;2022-12-18T08:24:54;65.87;;;26.73;;
19754;SDS011;10036;47.812;9.274;2022-12-18T08:27:21;60.80;;;25.93;;
19754;SDS011;10036;47.812;9.274;2022-12-18T08:29:48;61.30;;;26.90;;
19754;SDS011;10036;47.812;9.274;2022-12-18T08:32:15;57.13;;;24.50;;
19754;SDS011;10036;47.812;9.274;2022-12-18T08:34:43;65.80;;;26.83;;
19754;SDS011;10036;47.812;9.274;2022-12-18T08:37:10;62.77;;;25.83;;
19754;SDS011;10036;47.812;9.274;2022-12-18T08:39:36;59.97;;;25.73;;
19754;SDS011;10036;47.812;9.274;2022-12-18T08:42:03;58.07;;;24.67;;
19754;SDS011;10036;47.812;9.274;2022-12-18T08:44:48;62.73;;;25.23;;
19754;SDS011;10036;47.812;9.274;2022-12-18T08:47:15;52.27;;;22.13;;
19754;SDS011;10036;47.812;9.274;2022-12-18T08:49:43;61.43;;;24.20;;
19754;SDS011;10036;47.812;9.274;2022-12-18T08:52:10;59.73;;;25.33;;
19754;SDS011;10036;47.812;9.274;2022-12-18T08:54:37;57.13;;;24.60;;
19754;SDS011;10036;47.812;9.274;2022-12-18T08:57:03;70.80;;;29.17;;
19754;SDS011;10036;47.812;9.274;2022-12-18T08:59:30;65.13;;;27.50;;
19754;SDS011;10036;47.812;9.274;2022-12-18T09:01:57;61.50;;;26.40;;
19754;SDS011;10036;47.812;9.274;2022-12-18T09:04:24;77.60;;;30.17;;
19754;SDS011;10036;47.812;9.274;2022-12-18T09:06:52;68.90;;;27.87;;
19754;SDS011;10036;47.812;9.274;2022-12-18T09:09:19;66.07;;;27.13;;
19754;SDS011;10036;47.812;9.274;2022-12-18T09:11:46;63.90;;;26.83;;
19754;SDS011;10036;47.812;9.274;2022-12-18T09:14:13;61.50;;;25.90;;
19754;SDS011;10036;47.812;9.274;2022-12-18T09:16:39;65.07;;;26.23;;
19754;SDS011;10036;47.812;9.274;2022-12-18T09:19:07;65.17;;;25.63;;
19754;SDS011;10036;47.812;9.274;2022-12-18T09:21:36;69.33;;;29.73;;
19754;SDS011;10036;47.812;9.274;2022-12-18T09:24:05;63.83;;;25.63;;
19754;SDS011;10036;47.812;9.274;2022-12-18T09:26:32;75.17;;;32.17;;
19754;SDS011;10036;47.812;9.274;2022-12-18T09:28:59;68.87;;;28.40;;
19754;SDS011;10036;47.812;9.274;2022-12-18T09:31:26;69.13;;;27.23;;
19754;SDS011;10036;47.812;9.274;2022-12-18T09:33:54;74.93;;;30.30;;
19754;SDS011;10036;47.812;9.274;2022-12-18T09:36:21;68.63;;;27.30;;
19754;SDS011;10036;47.812;9.274;2022-12-18T09:38:48;63.03;;;24.87;;
19754;SDS011;10036;47.812;9.274;2022-12-18T09:41:19;66.33;;;27.23;;
19754;SDS011;10036;47.812;9.274;2022-12-18T09:43:58;65.83;;;27.80;;
19754;SDS011;10036;47.812;9.274;2022-12-18T09:46:29;67.63;;;28.17;;
19754;SDS011;10036;47.812;9.274;2022-12-18T09:49:01;69.63;;;28.90;;
19754;SDS011;10036;47.812;9.274;2022-12-18T09:51:33;76.97;;;29.23;;
19754;SDS011;10036;47.812;9.274;2022-12-18T09:54:06;71.07;;;28.40;;
19754;SDS011;10036;47.812;9.274;2022-12-18T09:56:40;68.83;;;28.63;;
19754;SDS011;10036;47.812;9.274;2022-12-18T09:59:14;67.07;;;28.97;;
19754;SDS011;10036;47.812;9.274;2022-12-18T10:01:46;67.87;;;27.00;;
19754;SDS011;10036;47.812;9.274;2022-12-18T10:04:13;61.10;;;27.40;;
19754;SDS011;10036;47.812;9.274;2022-12-18T10:06:41;69.87;;;27.53;;
19754;SDS011;10036;47.812;9.274;2022-12-18T10:09:14;66.93;;;28.37;;
19754;SDS011;10036;47.812;9.274;2022-12-18T10:11:51;63.93;;;26.97;;
19754;SDS011;10036;47.812;9.274;2022-12-18T10:14:26;61.60;;;26.30;;
19754;SDS011;10036;47.812;9.274;2022-12-18T10:16:59;64.10;;;26.07;;
19754;SDS011;10036;47.812;9.274;2022-12-18T10:19:43;58.10;;;24.67;;
19754;SDS011;10036;47.812;9.274;2022-12-18T10:22:19;61.43;;;25.57;;
19754;SDS011;10036;47.812;9.274;2022-12-18T10:24:53;66.40;;;27.37;;
19754;SDS011;10036;47.812;9.274;2022-12-18T10:27:26;60.97;;;25.43;;
19754;SDS011;10036;47.812;9.274;2022-12-18T10:29:54;61.10;;;24.77;;
19754;SDS011;10036;47.812;9.274;2022-12-18T10:32:22;62.67;;;25.77;;
19754;SDS011;10036;47.812;9.274;2022-12-18T10:34:51;63.90;;;25.97;;
19754;SDS011;10036;47.812;9.274;2022-12-18T10:37:21;60.37;;;25.27;;
19754;SDS011;10036;47.812;9.274;2022-12-18T10:40:04;59.53;;;25.73;;
19754;SDS011;10036;47.812;9.274;2022-12-18T10:42:35;58.47;;;24.47;;
19754;SDS011;10036;47.812;9.274;2022-12-18T10:45:02;56.60;;;24.80;;
19754;SDS011;10036;47.812;9.274;2022-12-18T10:47:34;63.13;;;26.27;;
19754;SDS011;10036;47.812;9.274;2022-12-18T10:50:02;63.87;;;28.57;;
19754;SDS011;10036;47.812;9.274;2022-12-18T10:52:29;68.23;;;29.87;;
19754;SDS011;10036;47.812;9.274;2022-12-18T10:54:57;69.43;;;27.87;;
19754;SDS011;10036;47.812;9.274;2022-12-18T10:57:31;66.60;;;28.73;;
19754;SDS011;10036;47.812;9.274;2022-12-18T11:00:19;83.23;;;37.57;;
19754;SDS011;10036;47.812;9.274;2022-12-18T11:02:50;66.40;;;30.53;;
19754;SDS011;10036;47.812;9.274;2022-12-18T11:05:25;66.77;;;32.67;;
19754;SDS011;10036;47.812;9.274;2022-12-18T11:07:53;70.27;;;29.30;;
19754;SDS011;10036;47.812;9.274;2022-12-18T11:10:25;63.13;;;27.43;;
19754;SDS011;10036;47.812;9.274;2022-12-18T11:12:54;65.53;;;26.37;;
19754;SDS011;10036;47.812;9.274;2022-12-18T11:15:23;65.00;;;26.93;;
19754;SDS011;10036;47.812;9.274;2022-12-18T11:17:54;63.60;;;26.17;;
19754;SDS011;10036;47.812;9.274;2022-12-18T11:20:24;71.07;;;28.97;;
19754;SDS011;10036;47.812;9.274;2022-12-18T11:22:58;61.30;;;25.47;;
19754;SDS011;10036;47.812;9.274;2022-12-18T11:25:26;63.13;;;26.73;;
19754;SDS011;10036;47.812;9.274;2022-12-18T11:27:54;60.37;;;26.00;;
19754;SDS011;10036;47.812;9.274;2022-12-18T11:30:24;65.00;;;26.73;;
19754;SDS011;10036;47.812;9.274;2022-12-18T11:32:54;56.40;;;25.37;;
19754;SDS011;10036;47.812;9.274;2022-12-18T11:35:30;62.97;;;28.10;;
19754;SDS011;10036;47.812;9.274;2022-12-18T11:38:04;62.63;;;26.23;;
19754;SDS011;10036;47.812;9.274;2022-12-18T11:40:40;60.07;;;25.17;;
19754;SDS011;10036;47.812;9.274;2022-12-18T11:43:10;66.07;;;27.30;;
19754;SDS011;10036;47.812;9.274;2022-12-18T11:45:45;63.13;;;25.00;;
19754;SDS011;10036;47.812;9.274;2022-12-18T11:48:18;62.03;;;25.43;;
19754;SDS011;10036;47.812;9.274;2022-12-18T11:50:50;62.27;;;26.07;;
19754;SDS011;10036;47.812;9.274;2022-12-18T11:53:19;59.53;;;25.17;;
19754;SDS011;10036;47.812;9.274;2022-12-18T11:55:52;62.60;;;26.23;;
19754;SDS011;10036;47.812;9.274;2022-12-18T12:01:18;57.10;;;24.07;;
19754;SDS011;10036;47.812;9.274;2022-12-18T12:06:46;59.47;;;25.57;;
19754;SDS011;10036;47.812;9.274;2022-12-18T12:09:23;64.70;;;26.07;;
19754;SDS011;10036;47.812;9.274;2022-12-18T12:11:59;57.77;;;24.20;;
19754;SDS011;10036;47.812;9.274;2022-12-18T12:14:40;64.43;;;26.43;;
19754;SDS011;10036;47.812;9.274;2022-12-18T12:17:18;62.10;;;25.73;;
19754;SDS011;10036;47.812;9.274;2022-12-18T12:19:52;61.53;;;25.90;;
19754;SDS011;10036;47.812;9.274;2022-12-18T12:22:30;63.97;;;26.17;;
19754;SDS011;10036;47.812;9.274;2022-12-18T12:25:05;62.87;;;26.07;;
19754;SDS011;10036;47.812;9.274;2022-12-18T12:27:43;67.57;;;28.63;;
19754;SDS011;10036;47.812;9.274;2022-12-18T12:30:20;66.47;;;27.67;;
19754;SDS011;10036;47.812;9.274;2022-12-18T12:32:58;66.77;;;27.03;;
19754;SDS011;10036;47.812;9.274;2022-12-18T12:35:39;68.47;;;26.73;;
19754;SDS011;10036;47.812;9.274;2022-12-18T12:38:13;79.67;;;32.83;;
19754;SDS011;10036;47.812;9.274;2022-12-18T12:40:45;88.00;;;33.90;;
19754;SDS011;10036;47.812;9.274;2022-12-18T12:43:19;80.90;;;32.90;;
19754;SDS011;10036;47.812;9.274;2022-12-18T12:45:51;72.50;;;29.53;;
19754;SDS011;10036;47.812;9.274;2022-12-18T12:48:27;74.03;;;29.37;;
19754;SDS011;10036;47.812;9.274;2022-12-18T12:51:15;108.57;;;38.07;;
19754;SDS011;10036;47.812;9.274;2022-12-18T12:53:45;75.67;;;30.33;;
19754;SDS011;10036;47.812;9.274;2022-12-18T12:56:13;59.50;;;26.73;;
19754;SDS011;10036;47.812;9.274;2022-12-18T12:58:44;56.07;;;24.57;;
19754;SDS011;10036;47.812;9.274;2022-12-18T13:01:22;64.77;;;26.73;;
19754;SDS011;10036;47.812;9.274;2022-12-18T13:03:57;63.20;;;27.70;;
19754;SDS011;10036;47.812;9.274;2022-12-18T13:06:35;62.60;;;25.97;;
19754;SDS011;10036;47.812;9.274;2022-12-18T13:09:08;59.87;;;25.83;;
19754;SDS011;10036;47.812;9.274;2022-12-18T13:11:35;62.83;;;26.00;;
19754;SDS011;10036;47.812;9.274;2022-12-18T13:14:26;59.67;;;25.23;;
19754;SDS011;10036;47.812;9.274;2022-12-18T13:17:14;64.70;;;26.03;;
19754;SDS011;10036;47.812;9.274;2022-12-18T13:20:10;63.80;;;24.63;;
19754;SDS011;10036;47.812;9.274;2022-12-18T13:22:40;59.10;;;26.07;;
19754;SDS011;10036;47.812;9.274;2022-12-18T13:25:29;60.87;;;25.47;;
19754;SDS011;10036;47.812;9.274;2022-12-18T13:28:02;62.80;;;25.27;;
19754;SDS011;10036;47.812;9.274;2022-12-18T13:30:44;59.90;;;24.63;;
19754;SDS011;10036;47.812;9.274;2022-12-18T13:36:16;65.10;;;25.90;;
19754;SDS011;10036;47.812;9.274;2022-12-18T13:45:43;67.00;;;26.10;;
19754;SDS011;10036;47.812;9.274;2022-12-18T13:48:19;66.20;;;25.73;;
19754;SDS011;10036;47.812;9.274;2022-12-18T13:50:48;78.07;;;31.93;;
19754;SDS011;10036;47.812;9.274;2022-12-18T13:53:21;84.50;;;33.63;;
19754;SDS011;10036;47.812;9.274;2022-12-18T13:55:51;69.13;;;28.23;;
19754;SDS011;10036;47.812;9.274;2022-12-18T13:58:18;71.73;;;28.60;;
19754;SDS011;10036;47.812;9.274;2022-12-18T14:00:45;71.70;;;27.77;;
19754;SDS011;10036;47.812;9.274;2022-12-18T14:03:16;66.07;;;26.13;;
19754;SDS011;10036;47.812;9.274;2022-12-18T14:05:45;62.73;;;27.30;;
19754;SDS011;10036;47.812;9.274;2022-12-18T14:08:17;71.03;;;27.93;;
19754;SDS011;10036;47.812;9.274;2022-12-18T14:10:46;66.27;;;27.53;;
19754;SDS011;10036;47.812;9.274;2022-12-18T14:13:17;63.00;;;25.83;;
19754;SDS011;10036;47.812;9.274;2022-12-18T14:15:49;64.77;;;26.57;;
19754;SDS011;10036;47.812;9.274;2022-12-18T14:18:19;60.67;;;24.73;;
19754;SDS011;10036;47.812;9.274;2022-12-18T14:20:49;65.53;;;26.00;;
19754;SDS011;10036;47.812;9.274;2022-12-18T14:23:30;62.07;;;26.60;;
19754;SDS011;10036;47.812;9.274;2022-12-18T14:26:00;66.03;;;26.87;;
19754;SDS011;10036;47.812;9.274;2022-12-18T14:28:28;59.40;;;23.93;;
19754;SDS011;10036;47.812;9.274;2022-12-18T14:30:56;60.27;;;25.63;;
19754;SDS011;10036;47.812;9.274;2022-12-18T14:33:23;57.80;;;24.10;;
19754;SDS011;10036;47.812;9.274;2022-12-18T14:35:58;60.03;;;25.53;;
19754;SDS011;10036;47.812;9.274;2022-12-18T14:38:27;59.17;;;24.43;;
19754;SDS011;10036;47.812;9.274;2022-12-18T14:40:56;61.80;;;26.10;;
19754;SDS011;10036;47.812;9.274;2022-12-18T14:43:26;63.30;;;25.47;;
19754;SDS011;10036;47.812;9.274;2022-12-18T14:45:54;64.23;;;26.40;;
19754;SDS011;10036;47.812;9.274;2022-12-18T14:48:24;62.67;;;26.03;;
19754;SDS011;10036;47.812;9.274;2022-12-18T14:51:01;59.87;;;24.67;;
19754;SDS011;10036;47.812;9.274;2022-12-18T14:53:34;67.53;;;26.70;;
19754;SDS011;10036;47.812;9.274;2022-12-18T14:56:03;62.90;;;24.97;;